createdAt,value
2017-01-29T00:00:24.607Z,0
2017-01-29T00:01:05.093Z,0
2017-01-29T00:01:45.688Z,0
2017-01-29T00:02:26.177Z,0
2017-01-29T00:03:06.652Z,0
2017-01-29T00:03:47.138Z,0
2017-01-29T00:04:27.620Z,0
2017-01-29T00:05:08.140Z,0
2017-01-29T00:05:48.608Z,0
2017-01-29T00:06:29.133Z,0
2017-01-29T00:07:09.618Z,0
2017-01-29T00:07:50.058Z,0
2017-01-29T00:08:30.543Z,0
2017-01-29T00:09:11.043Z,0
2017-01-29T00:09:51.546Z,0
2017-01-29T00:10:32.068Z,0
2017-01-29T00:11:12.582Z,0
2017-01-29T00:11:53.099Z,0
2017-01-29T00:12:33.595Z,0
2017-01-29T00:13:14.104Z,0
2017-01-29T00:13:54.632Z,0
2017-01-29T00:14:35.167Z,0
2017-01-29T00:15:15.611Z,0
2017-01-29T00:15:56.142Z,0
2017-01-29T00:16:36.611Z,0
2017-01-29T00:17:17.075Z,0
2017-01-29T00:17:57.567Z,0
2017-01-29T00:18:38.101Z,0
2017-01-29T00:19:18.575Z,0
2017-01-29T00:19:59.068Z,0
2017-01-29T00:20:39.525Z,0
2017-01-29T00:21:20.003Z,0
2017-01-29T00:22:00.492Z,0
2017-01-29T00:22:40.969Z,0
2017-01-29T00:23:21.462Z,0
2017-01-29T00:24:01.968Z,0
2017-01-29T00:24:42.430Z,0
2017-01-29T00:25:22.934Z,0
2017-01-29T00:26:03.417Z,0
2017-01-29T00:26:43.913Z,0
2017-01-29T00:27:24.378Z,0
2017-01-29T00:28:04.843Z,0
2017-01-29T00:28:45.344Z,0
2017-01-29T00:29:25.809Z,0
2017-01-29T00:30:06.304Z,0
2017-01-29T00:30:46.764Z,0
2017-01-29T00:31:27.220Z,0
2017-01-29T00:32:07.752Z,0
2017-01-29T00:32:48.202Z,0
2017-01-29T00:33:28.700Z,0
2017-01-29T00:34:09.179Z,0
2017-01-29T00:34:49.634Z,0
2017-01-29T00:35:30.150Z,0
2017-01-29T00:36:10.620Z,0
2017-01-29T00:36:51.109Z,0
2017-01-29T00:37:31.639Z,0
2017-01-29T00:38:12.104Z,0
2017-01-29T00:38:52.577Z,0
2017-01-29T00:41:05.792Z,0
2017-01-29T00:41:46.292Z,0
2017-01-29T00:42:26.833Z,0
2017-01-29T00:43:07.403Z,0
2017-01-29T00:43:47.771Z,0
2017-01-29T00:44:28.317Z,0
2017-01-29T00:45:08.793Z,0
2017-01-29T00:45:49.224Z,0
2017-01-29T00:46:29.714Z,0
2017-01-29T00:47:10.207Z,0
2017-01-29T00:47:50.652Z,0
2017-01-29T00:48:31.169Z,0
2017-01-29T00:49:11.764Z,0
2017-01-29T00:49:52.152Z,0
2017-01-29T00:50:32.604Z,0
2017-01-29T00:51:13.073Z,0
2017-01-29T00:51:53.557Z,0
2017-01-29T00:52:34.059Z,0
2017-01-29T00:53:14.549Z,0
2017-01-29T00:53:55.010Z,0
2017-01-29T00:54:35.515Z,0
2017-01-29T00:55:16.041Z,0
2017-01-29T00:55:56.510Z,0
2017-01-29T00:56:36.971Z,0
2017-01-29T00:57:17.502Z,0
2017-01-29T00:57:57.977Z,0
2017-01-29T00:58:38.474Z,0
2017-01-29T00:59:19.023Z,0
2017-01-29T00:59:59.549Z,0
2017-01-29T01:00:40.058Z,0
2017-01-29T01:01:20.576Z,0
2017-01-29T01:02:01.090Z,0
2017-01-29T01:02:41.611Z,0
2017-01-29T01:03:22.097Z,0
2017-01-29T01:04:02.628Z,0
2017-01-29T01:04:43.132Z,0
2017-01-29T01:05:23.649Z,0
2017-01-29T01:06:04.134Z,0
2017-01-29T01:06:44.659Z,0
2017-01-29T01:07:25.139Z,0
2017-01-29T01:08:05.677Z,0
2017-01-29T01:08:46.180Z,0
2017-01-29T01:09:26.701Z,0
2017-01-29T01:10:07.207Z,0
2017-01-29T01:10:47.744Z,0
2017-01-29T01:11:28.215Z,0
2017-01-29T01:12:08.728Z,0
2017-01-29T01:12:49.204Z,0
2017-01-29T01:13:29.708Z,0
2017-01-29T01:14:10.286Z,0
2017-01-29T01:14:50.754Z,0
2017-01-29T01:15:31.246Z,0
2017-01-29T01:16:11.736Z,0
2017-01-29T01:16:52.213Z,0
2017-01-29T01:17:32.738Z,0
2017-01-29T01:18:13.224Z,0
2017-01-29T01:18:53.706Z,0
2017-01-29T01:19:34.156Z,0
2017-01-29T01:20:14.671Z,0
2017-01-29T01:20:55.179Z,0
2017-01-29T01:21:35.699Z,0
2017-01-29T01:22:16.208Z,0
2017-01-29T01:22:56.721Z,0
2017-01-29T01:23:37.250Z,0
2017-01-29T01:24:17.747Z,0
2017-01-29T01:24:58.271Z,0
2017-01-29T01:25:38.767Z,0
2017-01-29T01:26:19.305Z,0
2017-01-29T01:26:59.745Z,0
2017-01-29T01:27:40.230Z,0
2017-01-29T01:28:20.747Z,0
2017-01-29T01:29:01.260Z,0
2017-01-29T01:29:41.775Z,0
2017-01-29T01:30:22.282Z,0
2017-01-29T01:31:02.791Z,0
2017-01-29T01:31:43.270Z,0
2017-01-29T01:32:23.783Z,0
2017-01-29T01:33:04.234Z,0
2017-01-29T01:33:44.709Z,0
2017-01-29T01:34:25.272Z,0
2017-01-29T01:35:05.773Z,0
2017-01-29T01:35:46.257Z,0
2017-01-29T01:36:26.789Z,0
2017-01-29T01:37:07.262Z,0
2017-01-29T01:37:47.764Z,0
2017-01-29T01:38:28.201Z,0
2017-01-29T01:39:08.695Z,0
2017-01-29T01:39:49.160Z,0
2017-01-29T01:40:29.688Z,0
2017-01-29T01:41:10.159Z,0
2017-01-29T01:41:50.693Z,0
2017-01-29T01:42:31.153Z,0
2017-01-29T01:43:11.691Z,0
2017-01-29T01:43:52.178Z,0
2017-01-29T01:44:32.679Z,0
2017-01-29T01:45:13.159Z,0
2017-01-29T01:45:53.672Z,0
2017-01-29T01:46:34.175Z,0
2017-01-29T01:47:14.682Z,0
2017-01-29T01:47:55.202Z,0
2017-01-29T01:48:35.692Z,0
2017-01-29T01:49:16.179Z,0
2017-01-29T01:49:56.669Z,0
2017-01-29T01:50:37.173Z,0
2017-01-29T01:51:17.680Z,0
2017-01-29T01:51:58.159Z,0
2017-01-29T01:52:38.624Z,0
2017-01-29T01:53:19.113Z,0
2017-01-29T01:53:59.623Z,0
2017-01-29T01:54:40.150Z,0
2017-01-29T01:55:20.674Z,0
2017-01-29T01:56:01.169Z,0
2017-01-29T01:56:41.687Z,0
2017-01-29T01:57:23.090Z,0
2017-01-29T01:58:02.872Z,0
2017-01-29T01:58:43.356Z,0
2017-01-29T01:59:23.870Z,0
2017-01-29T02:00:04.382Z,0
2017-01-29T02:00:44.902Z,0
2017-01-29T02:01:25.413Z,0
2017-01-29T02:02:05.919Z,0
2017-01-29T02:02:46.425Z,0
2017-01-29T02:03:26.920Z,0
2017-01-29T02:04:07.414Z,0
2017-01-29T02:04:47.868Z,0
2017-01-29T02:05:28.385Z,0
2017-01-29T02:06:08.848Z,0
2017-01-29T02:06:49.327Z,0
2017-01-29T02:07:29.832Z,0
2017-01-29T02:08:10.330Z,0
2017-01-29T02:08:50.797Z,0
2017-01-29T02:09:31.308Z,0
2017-01-29T02:10:11.772Z,0
2017-01-29T02:10:52.263Z,0
2017-01-29T02:11:32.737Z,0
2017-01-29T02:12:13.216Z,0
2017-01-29T02:12:53.722Z,0
2017-01-29T02:13:34.231Z,0
2017-01-29T02:14:14.688Z,0
2017-01-29T02:14:55.163Z,0
2017-01-29T02:15:35.607Z,0
2017-01-29T02:16:16.130Z,0
2017-01-29T02:16:56.545Z,0
2017-01-29T02:17:37.061Z,0
2017-01-29T02:18:17.573Z,0
2017-01-29T02:18:58.063Z,0
2017-01-29T02:19:38.554Z,0
2017-01-29T02:20:19.006Z,0
2017-01-29T02:20:59.532Z,0
2017-01-29T02:21:40.029Z,0
2017-01-29T02:22:20.540Z,0
2017-01-29T02:23:01.014Z,0
2017-01-29T02:23:41.464Z,0
2017-01-29T02:24:21.968Z,0
2017-01-29T02:25:02.450Z,0
2017-01-29T02:25:42.909Z,0
2017-01-29T02:26:23.387Z,0
2017-01-29T02:27:03.877Z,0
2017-01-29T02:27:44.386Z,0
2017-01-29T02:28:24.883Z,0
2017-01-29T02:29:05.397Z,0
2017-01-29T02:29:45.843Z,0
2017-01-29T02:30:26.331Z,0
2017-01-29T02:31:06.831Z,0
2017-01-29T02:31:47.367Z,0
2017-01-29T02:32:27.866Z,0
2017-01-29T02:33:08.388Z,0
2017-01-29T02:33:48.858Z,0
2017-01-29T02:34:29.399Z,0
2017-01-29T02:35:09.902Z,0
2017-01-29T02:35:50.367Z,0
2017-01-29T02:36:30.873Z,0
2017-01-29T02:37:11.405Z,0
2017-01-29T02:37:51.861Z,0
2017-01-29T02:38:32.367Z,0
2017-01-29T02:39:12.839Z,0
2017-01-29T02:39:53.332Z,0
2017-01-29T02:40:33.796Z,0
2017-01-29T02:41:14.322Z,0
2017-01-29T02:41:54.819Z,0
2017-01-29T02:42:35.268Z,0
2017-01-29T02:43:15.773Z,0
2017-01-29T02:43:56.287Z,0
2017-01-29T02:44:36.766Z,0
2017-01-29T02:45:17.227Z,0
2017-01-29T02:45:57.728Z,0
2017-01-29T02:46:38.262Z,0
2017-01-29T02:47:18.747Z,0
2017-01-29T02:47:59.231Z,0
2017-01-29T02:48:39.716Z,0
2017-01-29T02:49:20.174Z,0
2017-01-29T02:50:00.663Z,0
2017-01-29T02:50:41.139Z,0
2017-01-29T02:51:21.675Z,0
2017-01-29T02:52:02.171Z,0
2017-01-29T02:52:42.670Z,0
2017-01-29T02:53:23.153Z,0
2017-01-29T02:54:03.755Z,0
2017-01-29T02:54:44.212Z,0
2017-01-29T02:55:24.693Z,0
2017-01-29T02:56:05.205Z,0
2017-01-29T02:56:45.737Z,0
2017-01-29T02:57:26.175Z,0
2017-01-29T02:58:06.695Z,0
2017-01-29T02:58:47.203Z,0
2017-01-29T02:59:27.728Z,0
2017-01-29T03:00:08.184Z,0
2017-01-29T03:00:48.696Z,0
2017-01-29T03:01:29.215Z,0
2017-01-29T03:02:09.724Z,0
2017-01-29T03:02:50.237Z,0
2017-01-29T03:03:30.767Z,0
2017-01-29T03:04:11.239Z,0
2017-01-29T03:04:51.727Z,0
2017-01-29T03:05:32.510Z,0
2017-01-29T03:06:12.974Z,0
2017-01-29T03:06:53.520Z,0
2017-01-29T03:07:34.026Z,0
2017-01-29T03:08:14.514Z,0
2017-01-29T03:08:55.016Z,0
2017-01-29T03:09:35.544Z,0
2017-01-29T03:10:16.029Z,0
2017-01-29T03:10:56.545Z,0
2017-01-29T03:11:37.050Z,0
2017-01-29T03:12:17.567Z,0
2017-01-29T03:12:58.026Z,0
2017-01-29T03:13:38.517Z,0
2017-01-29T03:14:19.053Z,0
2017-01-29T03:14:59.575Z,0
2017-01-29T03:15:40.092Z,0
2017-01-29T03:16:20.671Z,0
2017-01-29T03:17:01.080Z,0
2017-01-29T03:17:41.542Z,0
2017-01-29T03:18:22.052Z,0
2017-01-29T03:19:02.562Z,0
2017-01-29T03:19:43.046Z,0
2017-01-29T03:20:23.545Z,0
2017-01-29T03:21:04.038Z,0
2017-01-29T03:21:44.573Z,0
2017-01-29T03:22:25.034Z,0
2017-01-29T03:23:05.551Z,0
2017-01-29T03:23:46.076Z,0
2017-01-29T03:24:26.591Z,0
2017-01-29T03:25:07.108Z,0
2017-01-29T03:25:47.604Z,0
2017-01-29T03:26:28.111Z,0
2017-01-29T03:27:08.628Z,0
2017-01-29T03:27:49.146Z,0
2017-01-29T03:28:29.643Z,0
2017-01-29T03:29:10.186Z,0
2017-01-29T03:29:50.675Z,0
2017-01-29T03:30:31.241Z,0
2017-01-29T03:31:11.674Z,0
2017-01-29T03:31:52.138Z,0
2017-01-29T03:32:32.659Z,0
2017-01-29T03:33:13.202Z,0
2017-01-29T03:33:53.697Z,0
2017-01-29T03:34:34.235Z,0
2017-01-29T03:35:14.752Z,0
2017-01-29T03:35:55.282Z,0
2017-01-29T03:36:35.794Z,0
2017-01-29T03:37:16.291Z,0
2017-01-29T03:37:56.759Z,0
2017-01-29T03:38:37.237Z,0
2017-01-29T03:39:17.751Z,0
2017-01-29T03:39:58.268Z,0
2017-01-29T03:40:38.771Z,0
2017-01-29T03:41:19.307Z,0
2017-01-29T03:41:59.790Z,0
2017-01-29T03:42:40.362Z,0
2017-01-29T03:43:20.863Z,0
2017-01-29T03:44:01.407Z,0
2017-01-29T03:44:41.887Z,0
2017-01-29T03:45:22.405Z,0
2017-01-29T03:46:02.884Z,0
2017-01-29T03:46:43.386Z,0
2017-01-29T03:47:23.904Z,0
2017-01-29T03:48:04.382Z,0
2017-01-29T03:48:44.878Z,0
2017-01-29T03:49:25.383Z,0
2017-01-29T03:50:05.921Z,0
2017-01-29T03:50:46.412Z,0
2017-01-29T03:51:26.923Z,0
2017-01-29T03:52:07.397Z,0
2017-01-29T03:52:47.916Z,0
2017-01-29T03:53:28.359Z,0
2017-01-29T03:54:08.879Z,0
2017-01-29T03:54:49.360Z,0
2017-01-29T03:55:29.879Z,0
2017-01-29T03:56:10.399Z,0
2017-01-29T03:56:50.897Z,0
2017-01-29T03:57:31.398Z,0
2017-01-29T03:58:11.995Z,0
2017-01-29T03:58:52.473Z,0
2017-01-29T03:59:32.974Z,0
2017-01-29T04:00:13.486Z,0
2017-01-29T04:00:54.005Z,0
2017-01-29T04:01:45.972Z,0
2017-01-29T04:02:27.278Z,0
2017-01-29T04:03:07.471Z,0
2017-01-29T04:04:30.615Z,0
2017-01-29T04:07:47.735Z,0
2017-01-29T04:08:28.255Z,0
2017-01-29T04:09:08.741Z,0
2017-01-29T04:09:49.256Z,0
2017-01-29T04:10:29.762Z,0
2017-01-29T04:13:08.430Z,0
2017-01-29T04:13:48.922Z,0
2017-01-29T04:14:29.404Z,0
2017-01-29T04:15:09.905Z,0
2017-01-29T04:15:50.399Z,0
2017-01-29T04:16:30.913Z,0
2017-01-29T04:17:11.417Z,0
2017-01-29T04:17:51.928Z,0
2017-01-29T04:18:32.448Z,0
2017-01-29T04:19:12.931Z,0
2017-01-29T04:19:53.455Z,0
2017-01-29T04:20:33.980Z,0
2017-01-29T04:21:14.447Z,0
2017-01-29T04:21:54.986Z,0
2017-01-29T04:22:35.434Z,0
2017-01-29T04:23:15.935Z,0
2017-01-29T04:23:56.456Z,0
2017-01-29T04:24:36.979Z,0
2017-01-29T04:25:17.463Z,0
2017-01-29T04:25:57.950Z,0
2017-01-29T04:26:38.460Z,0
2017-01-29T04:27:18.960Z,0
2017-01-29T04:27:59.452Z,0
2017-01-29T04:28:39.967Z,0
2017-01-29T04:29:20.469Z,0
2017-01-29T04:30:01.024Z,0
2017-01-29T04:30:41.555Z,0
2017-01-29T04:31:22.063Z,0
2017-01-29T04:32:02.549Z,0
2017-01-29T04:32:43.058Z,0
2017-01-29T04:33:23.575Z,0
2017-01-29T04:34:04.051Z,0
2017-01-29T04:34:44.567Z,0
2017-01-29T04:35:25.063Z,0
2017-01-29T04:36:05.570Z,0
2017-01-29T04:36:46.099Z,0
2017-01-29T04:38:59.335Z,0
2017-01-29T04:39:39.837Z,0
2017-01-29T04:40:20.339Z,0
2017-01-29T04:41:00.831Z,0
2017-01-29T04:41:41.377Z,0
2017-01-29T04:42:21.895Z,0
2017-01-29T04:43:02.381Z,0
2017-01-29T04:43:42.952Z,0
2017-01-29T04:44:23.440Z,0
2017-01-29T04:45:03.937Z,0
2017-01-29T04:47:42.606Z,0
2017-01-29T04:48:23.110Z,0
2017-01-29T04:49:03.580Z,0
2017-01-29T04:49:44.089Z,0
2017-01-29T04:50:24.584Z,0
2017-01-29T04:51:05.089Z,0
2017-01-29T04:51:45.666Z,0
2017-01-29T04:52:26.153Z,0
2017-01-29T04:53:06.645Z,0
2017-01-29T04:53:47.192Z,0
2017-01-29T04:54:27.672Z,0
2017-01-29T04:55:08.188Z,0
2017-01-29T04:55:48.681Z,0
2017-01-29T04:56:29.202Z,0
2017-01-29T04:57:09.691Z,0
2017-01-29T04:57:50.226Z,0
2017-01-29T04:58:30.632Z,0
2017-01-29T04:59:11.182Z,0
2017-01-29T04:59:51.693Z,0
2017-01-29T05:00:32.195Z,0
2017-01-29T05:01:12.844Z,0
2017-01-29T05:01:53.352Z,0
2017-01-29T05:02:33.756Z,0
2017-01-29T05:03:14.235Z,0
2017-01-29T05:03:54.768Z,0
2017-01-29T05:04:35.271Z,0
2017-01-29T05:05:15.780Z,0
2017-01-29T05:05:56.271Z,0
2017-01-29T05:06:36.817Z,0
2017-01-29T05:07:17.288Z,0
2017-01-29T05:07:57.840Z,0
2017-01-29T05:08:38.313Z,0
2017-01-29T05:09:18.883Z,0
2017-01-29T05:09:59.389Z,0
2017-01-29T05:10:39.887Z,0
2017-01-29T05:11:20.390Z,0
2017-01-29T05:12:00.900Z,0
2017-01-29T05:12:41.389Z,0
2017-01-29T05:13:22.050Z,0
2017-01-29T05:14:02.531Z,0
2017-01-29T05:14:43.040Z,0
2017-01-29T05:15:23.523Z,0
2017-01-29T05:16:04.070Z,0
2017-01-29T05:16:44.596Z,0
2017-01-29T05:19:02.946Z,0
2017-01-29T05:19:43.484Z,0
2017-01-29T05:20:24.009Z,0
2017-01-29T05:22:52.481Z,0
2017-01-29T05:23:32.972Z,0
2017-01-29T05:24:13.476Z,0
2017-01-29T05:24:54.024Z,0
2017-01-29T05:25:34.524Z,0
2017-01-29T05:26:15.030Z,0
2017-01-29T05:26:55.530Z,0
2017-01-29T05:27:36.042Z,0
2017-01-29T05:28:16.528Z,0
2017-01-29T05:28:57.076Z,0
2017-01-29T05:29:37.603Z,0
2017-01-29T05:30:18.132Z,0
2017-01-29T05:30:58.651Z,0
2017-01-29T05:31:39.169Z,0
2017-01-29T05:32:19.654Z,0
2017-01-29T05:34:48.176Z,0
2017-01-29T05:35:28.652Z,0
2017-01-29T05:36:09.169Z,0
2017-01-29T05:36:49.674Z,0
2017-01-29T05:37:30.164Z,0
2017-01-29T05:38:10.681Z,0
2017-01-29T05:38:51.180Z,0
2017-01-29T05:39:31.674Z,0
2017-01-29T05:40:12.168Z,0
2017-01-29T05:42:40.651Z,0
2017-01-29T05:43:21.162Z,0
2017-01-29T05:44:01.676Z,0
2017-01-29T05:44:42.190Z,0
2017-01-29T05:45:22.759Z,0
2017-01-29T05:46:03.315Z,0
2017-01-29T05:46:43.815Z,0
2017-01-29T05:47:24.327Z,0
2017-01-29T05:48:04.880Z,0
2017-01-29T05:48:45.328Z,0
2017-01-29T05:49:25.842Z,0
2017-01-29T05:50:06.309Z,0
2017-01-29T05:50:46.844Z,0
2017-01-29T05:51:27.325Z,0
2017-01-29T05:52:07.825Z,0
2017-01-29T05:52:48.339Z,0
2017-01-29T05:53:28.872Z,0
2017-01-29T05:54:09.359Z,0
2017-01-29T05:54:49.865Z,0
2017-01-29T05:55:30.364Z,0
2017-01-29T05:56:10.865Z,0
2017-01-29T05:56:51.360Z,0
2017-01-29T05:57:31.856Z,0
2017-01-29T05:58:12.350Z,0
2017-01-29T05:58:52.884Z,0
2017-01-29T05:59:33.378Z,0
2017-01-29T06:00:13.871Z,0
2017-01-29T06:00:54.404Z,0
2017-01-29T06:01:34.884Z,0
2017-01-29T06:02:15.401Z,0
2017-01-29T06:02:55.944Z,0
2017-01-29T06:03:36.456Z,0
2017-01-29T06:04:16.999Z,0
2017-01-29T06:04:57.503Z,0
2017-01-29T06:05:38.071Z,0
2017-01-29T06:06:18.575Z,0
2017-01-29T06:06:59.068Z,0
2017-01-29T06:07:39.604Z,0
2017-01-29T06:08:20.110Z,0
2017-01-29T06:09:00.616Z,0
2017-01-29T06:09:41.172Z,0
2017-01-29T06:10:21.649Z,0
2017-01-29T06:11:02.164Z,0
2017-01-29T06:11:42.671Z,0
2017-01-29T06:12:23.168Z,0
2017-01-29T06:13:03.687Z,0
2017-01-29T06:13:44.170Z,0
2017-01-29T06:14:24.686Z,0
2017-01-29T06:15:05.179Z,0
2017-01-29T06:17:18.421Z,0
2017-01-29T06:17:58.936Z,0
2017-01-29T06:18:39.446Z,0
2017-01-29T06:19:19.946Z,0
2017-01-29T06:20:00.465Z,0
2017-01-29T06:20:40.941Z,0
2017-01-29T06:22:55.009Z,0
2017-01-29T06:23:35.525Z,0
2017-01-29T06:24:16.008Z,0
2017-01-29T06:24:57.470Z,0
2017-01-29T06:27:41.305Z,0
2017-01-29T06:28:21.847Z,0
2017-01-29T06:29:02.300Z,0
2017-01-29T06:29:42.830Z,0
2017-01-29T06:30:23.314Z,0
2017-01-29T06:31:03.839Z,0
2017-01-29T06:31:44.341Z,0
2017-01-29T06:32:24.831Z,0
2017-01-29T06:33:05.322Z,0
2017-01-29T06:33:45.794Z,0
2017-01-29T06:34:26.282Z,0
2017-01-29T06:35:06.818Z,0
2017-01-29T06:35:48.150Z,0
2017-01-29T06:36:28.633Z,0
2017-01-29T06:37:09.157Z,0
2017-01-29T06:37:49.647Z,0
2017-01-29T06:38:30.110Z,0
2017-01-29T06:39:11.792Z,0
2017-01-29T06:39:53.737Z,0
2017-01-29T06:40:35.942Z,0
2017-01-29T06:41:16.278Z,0
2017-01-29T06:41:57.465Z,0
2017-01-29T06:42:37.978Z,0
2017-01-29T06:43:18.463Z,0
2017-01-29T06:43:58.949Z,0
2017-01-29T06:44:39.753Z,0
2017-01-29T06:45:20.223Z,0
2017-01-29T06:47:39.265Z,0
2017-01-29T06:48:19.740Z,0
2017-01-29T06:49:00.256Z,0
2017-01-29T06:49:40.745Z,0
2017-01-29T06:50:21.257Z,0
2017-01-29T06:51:01.755Z,0
2017-01-29T06:51:42.252Z,0
2017-01-29T06:52:22.741Z,0
2017-01-29T06:53:03.359Z,0
2017-01-29T06:53:43.809Z,0
2017-01-29T06:54:24.290Z,0
2017-01-29T06:55:04.804Z,0
2017-01-29T06:55:45.267Z,0
2017-01-29T06:56:25.758Z,0
2017-01-29T06:57:06.269Z,0
2017-01-29T06:57:46.718Z,0
2017-01-29T06:58:27.230Z,0
2017-01-29T06:59:07.718Z,0
2017-01-29T06:59:48.223Z,0
2017-01-29T07:00:28.733Z,0
2017-01-29T07:01:09.227Z,0
2017-01-29T07:01:49.712Z,0
2017-01-29T07:02:30.186Z,0
2017-01-29T07:03:10.704Z,5
2017-01-29T07:03:52.431Z,5
2017-01-29T07:04:32.013Z,5
2017-01-29T07:05:12.504Z,5
2017-01-29T07:05:52.982Z,5
2017-01-29T07:06:34.056Z,5
2017-01-29T07:07:14.640Z,5
2017-01-29T07:07:55.784Z,5
2017-01-29T07:08:36.259Z,5
2017-01-29T07:09:16.778Z,5
2017-01-29T07:09:57.291Z,10
2017-01-29T07:10:37.760Z,10
2017-01-29T07:11:18.221Z,10
2017-01-29T07:11:58.733Z,10
2017-01-29T07:12:39.231Z,10
2017-01-29T07:13:19.938Z,10
2017-01-29T07:14:00.484Z,10
2017-01-29T07:14:41.004Z,10
2017-01-29T07:15:21.465Z,15
2017-01-29T07:16:02.296Z,15
2017-01-29T07:16:43.547Z,15
2017-01-29T07:17:25.068Z,15
2017-01-29T07:18:05.527Z,15
2017-01-29T07:18:46.032Z,15
2017-01-29T07:19:26.548Z,15
2017-01-29T07:20:07.059Z,20
2017-01-29T07:20:47.570Z,20
2017-01-29T07:21:28.057Z,20
2017-01-29T07:22:08.585Z,20
2017-01-29T07:22:49.074Z,20
2017-01-29T07:23:29.564Z,20
2017-01-29T07:24:10.010Z,25
2017-01-29T07:24:50.493Z,25
2017-01-29T07:25:30.999Z,25
2017-01-29T07:26:11.508Z,25
2017-01-29T07:26:51.974Z,25
2017-01-29T07:27:32.479Z,25
2017-01-29T07:28:13.004Z,25
2017-01-29T07:28:53.530Z,25
2017-01-29T07:29:34.056Z,30
2017-01-29T07:30:14.657Z,30
2017-01-29T07:30:55.184Z,30
2017-01-29T07:31:35.689Z,30
2017-01-29T07:32:16.181Z,30
2017-01-29T07:32:56.716Z,35
2017-01-29T07:33:37.202Z,35
2017-01-29T07:34:17.706Z,35
2017-01-29T07:34:58.216Z,35
2017-01-29T07:35:38.731Z,35
2017-01-29T07:36:19.244Z,35
2017-01-29T07:36:59.751Z,40
2017-01-29T07:37:40.252Z,40
2017-01-29T07:38:20.746Z,40
2017-01-29T07:39:01.231Z,40
2017-01-29T07:39:41.757Z,40
2017-01-29T07:40:22.273Z,40
2017-01-29T07:41:02.782Z,45
2017-01-29T07:41:43.277Z,45
2017-01-29T07:42:23.808Z,45
2017-01-29T07:43:04.279Z,45
2017-01-29T07:43:44.763Z,45
2017-01-29T07:44:25.263Z,45
2017-01-29T07:45:05.780Z,45
2017-01-29T07:45:46.269Z,50
2017-01-29T07:46:26.755Z,50
2017-01-29T07:47:07.267Z,50
2017-01-29T07:47:47.780Z,50
2017-01-29T07:48:28.290Z,50
2017-01-29T07:49:08.790Z,50
2017-01-29T07:49:49.285Z,50
2017-01-29T07:50:29.784Z,55
2017-01-29T07:51:10.287Z,55
2017-01-29T07:51:50.796Z,55
2017-01-29T07:52:31.283Z,55
2017-01-29T07:53:11.772Z,55
2017-01-29T07:53:52.266Z,55
2017-01-29T07:54:32.776Z,55
2017-01-29T07:55:13.248Z,55
2017-01-29T07:55:53.716Z,55
2017-01-29T07:58:12.053Z,55
2017-01-29T07:58:52.573Z,55
2017-01-29T07:59:33.069Z,50
2017-01-29T08:00:13.576Z,50
2017-01-29T08:00:54.080Z,50
2017-01-29T08:01:34.602Z,50
2017-01-29T08:02:15.108Z,50
2017-01-29T08:02:55.666Z,55
2017-01-29T08:03:36.174Z,55
2017-01-29T08:04:16.684Z,55
2017-01-29T08:04:57.185Z,60
2017-01-29T08:05:37.690Z,60
2017-01-29T08:06:18.209Z,65
2017-01-29T08:06:58.678Z,65
2017-01-29T08:07:39.172Z,70
2017-01-29T08:08:19.674Z,70
2017-01-29T08:09:00.165Z,70
2017-01-29T08:09:40.687Z,70
2017-01-29T08:10:21.217Z,70
2017-01-29T08:11:01.725Z,70
2017-01-29T08:11:42.242Z,70
2017-01-29T08:12:22.738Z,70
2017-01-29T08:13:03.249Z,70
2017-01-29T08:13:43.742Z,70
2017-01-29T08:14:24.226Z,70
2017-01-29T08:15:04.712Z,70
2017-01-29T08:15:45.218Z,70
2017-01-29T08:16:25.763Z,70
2017-01-29T08:17:06.313Z,70
2017-01-29T08:17:46.803Z,70
2017-01-29T08:18:27.314Z,70
2017-01-29T08:19:07.814Z,70
2017-01-29T08:19:48.343Z,70
2017-01-29T08:20:28.830Z,70
2017-01-29T08:21:09.342Z,70
2017-01-29T08:21:49.919Z,70
2017-01-29T08:22:30.521Z,70
2017-01-29T08:23:10.919Z,70
2017-01-29T08:23:51.449Z,80
2017-01-29T08:24:31.883Z,75
2017-01-29T08:25:12.415Z,75
2017-01-29T08:25:52.863Z,75
2017-01-29T08:26:33.329Z,75
2017-01-29T08:27:13.862Z,75
2017-01-29T08:27:54.307Z,75
2017-01-29T08:28:34.776Z,75
2017-01-29T08:29:15.449Z,75
2017-01-29T08:29:55.738Z,75
2017-01-29T08:30:36.243Z,75
2017-01-29T08:31:16.691Z,75
2017-01-29T08:31:57.204Z,75
2017-01-29T08:32:37.700Z,75
2017-01-29T08:33:18.171Z,80
2017-01-29T08:33:58.658Z,75
2017-01-29T08:34:39.135Z,80
2017-01-29T08:35:19.619Z,80
2017-01-29T08:36:00.106Z,80
2017-01-29T08:36:40.581Z,80
2017-01-29T08:37:21.090Z,80
2017-01-29T08:38:01.547Z,85
2017-01-29T08:38:42.045Z,85
2017-01-29T08:39:22.573Z,90
2017-01-29T08:40:03.056Z,90
2017-01-29T08:40:43.586Z,95
2017-01-29T08:41:24.051Z,95
2017-01-29T08:42:04.512Z,95
2017-01-29T08:42:45.044Z,95
2017-01-29T08:43:25.495Z,95
2017-01-29T08:44:05.973Z,90
2017-01-29T08:44:46.439Z,90
2017-01-29T08:45:26.900Z,85
2017-01-29T08:46:07.461Z,85
2017-01-29T08:46:47.941Z,85
2017-01-29T08:47:28.405Z,85
2017-01-29T08:48:08.937Z,80
2017-01-29T08:48:49.371Z,80
2017-01-29T08:49:29.835Z,80
2017-01-29T08:50:10.323Z,80
2017-01-29T08:50:50.949Z,80
2017-01-29T08:51:31.461Z,80
2017-01-29T08:52:11.871Z,80
2017-01-29T08:52:52.354Z,80
2017-01-29T08:53:32.852Z,80
2017-01-29T08:54:13.312Z,80
2017-01-29T08:54:53.819Z,80
2017-01-29T08:55:34.340Z,80
2017-01-29T08:56:14.816Z,80
2017-01-29T08:56:55.312Z,80
2017-01-29T08:57:35.743Z,80
2017-01-29T08:58:16.279Z,80
2017-01-29T08:58:56.730Z,80
2017-01-29T08:59:37.236Z,80
2017-01-29T09:00:17.720Z,85
2017-01-29T09:00:58.209Z,80
2017-01-29T09:01:38.685Z,80
2017-01-29T09:02:19.192Z,80
2017-01-29T09:02:59.688Z,85
2017-01-29T09:03:40.170Z,85
2017-01-29T09:04:20.673Z,85
2017-01-29T09:05:01.181Z,85
2017-01-29T09:05:41.693Z,85
2017-01-29T09:06:22.198Z,85
2017-01-29T09:07:02.727Z,85
2017-01-29T09:07:43.235Z,85
2017-01-29T09:08:23.736Z,85
2017-01-29T09:09:04.259Z,85
2017-01-29T09:09:44.792Z,85
2017-01-29T09:10:25.264Z,85
2017-01-29T09:11:05.735Z,85
2017-01-29T09:11:46.219Z,85
2017-01-29T09:12:26.775Z,85
2017-01-29T09:13:07.282Z,85
2017-01-29T09:13:47.697Z,85
2017-01-29T09:14:28.197Z,85
2017-01-29T09:15:08.707Z,85
2017-01-29T09:15:49.230Z,85
2017-01-29T09:16:29.742Z,85
2017-01-29T09:17:10.304Z,85
2017-01-29T09:17:50.793Z,85
2017-01-29T09:18:31.291Z,85
2017-01-29T09:19:11.777Z,85
2017-01-29T09:19:52.306Z,85
2017-01-29T09:20:32.781Z,85
2017-01-29T09:21:13.289Z,85
2017-01-29T09:21:53.918Z,85
2017-01-29T09:22:34.589Z,85
2017-01-29T09:23:15.057Z,85
2017-01-29T09:23:55.558Z,85
2017-01-29T09:24:36.072Z,85
2017-01-29T09:25:16.590Z,85
2017-01-29T09:25:57.346Z,85
2017-01-29T09:26:37.869Z,85
2017-01-29T09:27:18.350Z,85
2017-01-29T09:27:58.899Z,85
2017-01-29T09:28:39.393Z,85
2017-01-29T09:29:19.907Z,85
2017-01-29T09:30:00.442Z,85
2017-01-29T09:30:40.945Z,85
2017-01-29T09:31:21.452Z,85
2017-01-29T09:32:02.035Z,85
2017-01-29T09:32:42.528Z,85
2017-01-29T09:33:23.206Z,85
2017-01-29T09:34:03.639Z,85
2017-01-29T09:34:44.142Z,85
2017-01-29T09:35:24.627Z,85
2017-01-29T09:36:05.153Z,80
2017-01-29T09:38:23.551Z,80
2017-01-29T09:39:04.059Z,85
2017-01-29T09:39:44.708Z,85
2017-01-29T09:40:25.193Z,85
2017-01-29T09:41:05.701Z,85
2017-01-29T09:41:46.200Z,85
2017-01-29T09:42:26.714Z,80
2017-01-29T09:43:07.225Z,80
2017-01-29T09:43:47.707Z,85
2017-01-29T09:44:28.250Z,85
2017-01-29T09:45:08.743Z,85
2017-01-29T09:45:49.184Z,85
2017-01-29T09:46:29.689Z,85
2017-01-29T09:47:10.183Z,85
2017-01-29T09:47:50.697Z,85
2017-01-29T09:48:31.181Z,85
2017-01-29T09:49:11.704Z,85
2017-01-29T09:49:53.167Z,85
2017-01-29T09:50:34.181Z,85
2017-01-29T09:51:14.594Z,85
2017-01-29T09:51:55.189Z,85
2017-01-29T09:52:35.509Z,85
2017-01-29T09:53:16.486Z,85
2017-01-29T09:53:57.022Z,85
2017-01-29T09:54:37.363Z,85
2017-01-29T09:55:17.837Z,85
2017-01-29T09:56:07.228Z,85
2017-01-29T09:56:46.546Z,85
2017-01-29T09:57:27.367Z,85
2017-01-29T10:05:14.138Z,85
2017-01-29T10:05:54.013Z,85
2017-01-29T10:06:34.596Z,85
2017-01-29T10:07:15.116Z,85
2017-01-29T10:07:55.931Z,85
2017-01-29T10:08:36.452Z,85
2017-01-29T10:09:17.022Z,90
2017-01-29T10:09:57.544Z,90
2017-01-29T10:10:38.249Z,90
2017-01-29T10:11:18.752Z,90
2017-01-29T10:12:01.061Z,90
2017-01-29T10:12:41.573Z,90
2017-01-29T10:13:22.061Z,90
2017-01-29T10:14:02.583Z,90
2017-01-29T10:14:43.137Z,90
2017-01-29T10:15:23.955Z,90
2017-01-29T10:16:04.448Z,90
2017-01-29T10:16:44.939Z,90
2017-01-29T10:17:25.444Z,90
2017-01-29T10:18:05.990Z,90
2017-01-29T10:18:46.521Z,90
2017-01-29T10:19:26.995Z,90
2017-01-29T10:20:07.577Z,90
2017-01-29T10:20:48.085Z,90
2017-01-29T10:21:28.582Z,90
2017-01-29T10:22:09.071Z,90
2017-01-29T10:22:49.639Z,90
2017-01-29T10:23:30.313Z,95
2017-01-29T10:25:43.751Z,95
2017-01-29T10:26:24.266Z,95
2017-01-29T10:27:04.898Z,95
2017-01-29T10:27:45.356Z,95
2017-01-29T10:28:25.943Z,95
2017-01-29T10:29:06.464Z,95